Time;durP1;ratioP1;P1;durP2;ratioP2;P2;SDS_P1;SDS_P2;PMS_P1;PMS_P2;Temp;Humidity;BMP_temperature;BMP_pressure;BME280_temperature;BME280_humidity;BME280_pressure;Samples;Min_cycle;Max_cycle;Signal;HPM_P1;HPM_P2
2023/07/13 00:00:42;;;;;;;12.00;4.65;;;;;;;16.68;100.00;92479.59;4812705;29;20494;-81
2023/07/13 00:03:08;;;;;;;17.30;6.10;;;;;;;16.59;100.00;92470.94;4805418;29;20051;-82
2023/07/13 00:05:33;;;;;;;13.00;5.53;;;;;;;16.54;100.00;92460.59;4811881;29;20042;-82
2023/07/13 00:08:00;;;;;;;18.02;5.88;;;;;;;16.49;100.00;92447.59;4809256;29;20041;-81
2023/07/13 00:10:26;;;;;;;17.48;5.57;;;;;;;16.46;100.00;92449.00;4812735;29;20039;-80
2023/07/13 00:12:54;;;;;;;14.35;5.50;;;;;;;16.46;100.00;92449.00;4814322;29;20061;-82
2023/07/13 00:15:24;;;;;;;12.27;5.60;;;;;;;16.44;100.00;92444.03;4813856;29;20075;-82
2023/07/13 00:17:51;;;;;;;15.70;6.20;;;;;;;16.58;100.00;92445.63;4814773;29;20143;-81
2023/07/13 00:20:16;;;;;;;15.30;5.28;;;;;;;16.44;100.00;92446.69;4814551;29;20031;-82
2023/07/13 00:22:42;;;;;;;14.35;6.57;;;;;;;16.43;100.00;92449.63;4813603;29;20059;-81
2023/07/13 00:25:11;;;;;;;16.05;5.40;;;;;;;16.38;100.00;92461.16;4812362;29;20478;-82
2023/07/13 00:27:37;;;;;;;13.32;5.60;;;;;;;16.33;100.00;92465.88;4814564;29;20034;-82
2023/07/13 00:30:03;;;;;;;17.05;5.28;;;;;;;16.32;100.00;92473.00;4797480;29;20273;-81
2023/07/13 00:32:30;;;;;;;18.38;5.60;;;;;;;16.33;100.00;92469.28;4811132;29;20042;-82
2023/07/13 00:34:57;;;;;;;11.73;6.10;;;;;;;16.30;100.00;92467.31;4814038;29;20038;-82
2023/07/13 00:37:23;;;;;;;15.35;7.50;;;;;;;16.31;100.00;92471.47;4825038;29;20035;-81
2023/07/13 00:39:48;;;;;;;21.27;7.38;;;;;;;16.26;100.00;92471.69;4809443;29;20050;-81
2023/07/13 00:42:14;;;;;;;20.33;7.88;;;;;;;16.23;100.00;92480.22;4811736;29;20070;-81
2023/07/13 00:44:40;;;;;;;20.67;7.50;;;;;;;16.20;100.00;92483.50;4827347;29;20047;-82
2023/07/13 00:47:06;;;;;;;21.63;7.55;;;;;;;16.19;100.00;92487.25;4827934;29;20042;-82
2023/07/13 00:49:35;;;;;;;17.77;7.28;;;;;;;16.19;100.00;92484.63;4813394;29;20070;-82
2023/07/13 00:52:06;;;;;;;18.15;7.60;;;;;;;16.16;100.00;92493.16;4813056;29;20121;-81
2023/07/13 00:54:41;;;;;;;18.80;6.88;;;;;;;16.15;100.00;92491.63;4811463;29;20493;-80
2023/07/13 00:57:13;;;;;;;22.27;7.47;;;;;;;16.16;100.00;92488.66;4813205;29;20050;-80
2023/07/13 00:59:43;;;;;;;31.05;8.13;;;;;;;16.17;100.00;92492.09;4813404;29;20062;-81
2023/07/13 01:02:09;;;;;;;19.27;7.57;;;;;;;16.16;100.00;92498.44;4825671;29;20030;-80
2023/07/13 01:04:35;;;;;;;21.23;7.55;;;;;;;16.14;100.00;92498.75;4803899;29;20747;-81
2023/07/13 01:07:00;;;;;;;19.00;6.95;;;;;;;16.15;100.00;92491.63;4805784;29;20100;-82
2023/07/13 01:09:27;;;;;;;20.90;7.63;;;;;;;16.14;100.00;92490.06;4811267;29;20047;-80
2023/07/13 01:11:53;;;;;;;17.20;6.95;;;;;;;16.11;100.00;92488.84;4814365;29;20047;-80
2023/07/13 01:14:19;;;;;;;23.10;6.93;;;;;;;16.08;100.00;92491.38;4815744;29;20045;-80
2023/07/13 01:16:49;;;;;;;20.83;7.20;;;;;;;16.06;100.00;92493.53;4817517;29;20608;-81
2023/07/13 01:19:35;;;;;;;20.42;6.95;;;;;;;16.01;100.00;92503.19;4814169;29;20110;-80
2023/07/13 01:22:08;;;;;;;20.27;6.95;;;;;;;15.94;100.00;92495.00;4816693;29;20580;-80
2023/07/13 01:24:38;;;;;;;15.05;6.40;;;;;;;15.95;100.00;92509.75;4814137;29;20054;-80
2023/07/13 01:27:05;;;;;;;17.15;7.28;;;;;;;15.95;100.00;92509.75;4817354;29;20019;-81
2023/07/13 01:29:33;;;;;;;16.77;7.05;;;;;;;15.89;100.00;92516.28;4831291;29;20038;-82
2023/07/13 01:31:59;;;;;;;30.23;7.50;;;;;;;15.88;100.00;92514.75;4816768;29;20079;-82
2023/07/13 01:34:26;;;;;;;17.08;7.30;;;;;;;15.79;100.00;92506.88;4815533;29;20051;-82
2023/07/13 01:36:53;;;;;;;13.90;6.93;;;;;;;15.77;100.00;92508.28;4813136;29;20063;-82
2023/07/13 01:39:23;;;;;;;18.95;7.75;;;;;;;15.74;100.00;92504.41;4812572;29;20042;-82
2023/07/13 01:41:49;;;;;;;18.48;6.40;;;;;;;15.73;100.00;92507.34;4814160;29;20455;-81
2023/07/13 01:44:15;;;;;;;16.83;6.20;;;;;;;15.71;100.00;92506.91;4812843;29;20041;-82
2023/07/13 01:46:41;;;;;;;21.17;6.55;;;;;;;15.70;100.00;92500.81;4814939;29;20114;-82
2023/07/13 01:49:06;;;;;;;23.15;6.47;;;;;;;15.71;100.00;92498.97;4817543;29;20507;-81
2023/07/13 01:51:32;;;;;;;17.40;6.60;;;;;;;15.69;100.00;92493.22;4814833;29;20035;-81
2023/07/13 01:53:58;;;;;;;19.02;5.88;;;;;;;15.73;100.00;92494.16;4807362;29;20098;-82
2023/07/13 01:56:23;;;;;;;18.13;5.78;;;;;;;15.78;100.00;92489.50;4814870;29;20054;-81
2023/07/13 01:58:49;;;;;;;22.45;5.80;;;;;;;15.86;100.00;92487.91;4827858;29;20107;-81
2023/07/13 02:01:15;;;;;;;17.17;6.40;;;;;;;15.89;100.00;92479.31;4815153;29;20090;-81
2023/07/13 02:03:41;;;;;;;17.35;5.78;;;;;;;15.86;100.00;92479.97;4815788;29;20051;-81
2023/07/13 02:06:06;;;;;;;13.65;4.97;;;;;;;15.84;100.00;92482.16;4815280;29;20041;-82
2023/07/13 02:08:33;;;;;;;16.30;5.80;;;;;;;15.87;100.00;92478.09;4817490;29;20034;-82
2023/07/13 02:10:58;;;;;;;11.88;5.63;;;;;;;15.85;100.00;92467.88;4809678;29;20187;-81
2023/07/13 02:13:24;;;;;;;15.70;5.68;;;;;;;15.81;100.00;92474.88;4817875;29;20354;-81
2023/07/13 02:15:51;;;;;;;13.82;5.78;;;;;;;15.74;100.00;92477.25;4794605;29;20025;-83
2023/07/13 02:18:17;;;;;;;17.67;6.07;;;;;;;15.68;100.00;92473.22;4814634;29;20237;-83
2023/07/13 02:20:43;;;;;;;18.17;6.10;;;;;;;15.63;100.00;92468.88;4816132;29;20123;-81
2023/07/13 02:23:09;;;;;;;15.00;5.22;;;;;;;15.59;100.00;92468.72;4817002;29;20068;-83
2023/07/13 02:25:35;;;;;;;15.10;5.43;;;;;;;15.57;100.00;92472.78;4814867;29;20046;-82
2023/07/13 02:28:01;;;;;;;13.15;5.50;;;;;;;15.53;100.00;92477.91;4799762;29;20031;-81
2023/07/13 02:30:29;;;;;;;16.90;5.80;;;;;;;15.53;100.00;92480.53;4814372;29;20050;-82
2023/07/13 02:32:56;;;;;;;18.08;5.30;;;;;;;15.52;100.00;92476.38;4815814;29;20389;-81
2023/07/13 02:35:22;;;;;;;20.08;5.22;;;;;;;15.53;100.00;92477.13;4815342;29;20066;-82
2023/07/13 02:37:48;;;;;;;10.98;4.90;;;;;;;15.55;100.00;92469.69;4816062;29;20034;-80
2023/07/13 02:40:14;;;;;;;23.27;5.03;;;;;;;15.56;100.00;92468.59;4809784;29;20111;-81
2023/07/13 02:42:40;;;;;;;15.75;5.43;;;;;;;15.57;100.00;92457.72;4817865;29;20034;-79
2023/07/13 02:45:08;;;;;;;15.60;5.85;;;;;;;15.59;100.00;92458.19;4813849;29;20031;-82
2023/07/13 02:47:35;;;;;;;12.43;4.85;;;;;;;15.67;100.00;92461.09;4816545;29;20125;-80
2023/07/13 02:50:00;;;;;;;14.80;4.90;;;;;;;15.70;100.00;92461.25;4809436;29;20067;-81
2023/07/13 02:52:26;;;;;;;15.82;4.85;;;;;;;15.68;100.00;92462.66;4816319;29;20108;-81
2023/07/13 02:54:52;;;;;;;11.55;4.63;;;;;;;15.60;100.00;92459.75;4816266;29;20037;-81
2023/07/13 02:57:17;;;;;;;12.05;4.80;;;;;;;15.54;100.00;92458.38;4812811;29;20072;-79
2023/07/13 02:59:43;;;;;;;12.93;4.47;;;;;;;15.49;100.00;92450.63;4813287;29;20050;-82
2023/07/13 03:02:09;;;;;;;17.30;4.97;;;;;;;15.45;100.00;92459.50;4822961;29;20053;-81
2023/07/13 03:04:37;;;;;;;13.88;4.75;;;;;;;15.41;100.00;92454.06;4800052;29;20046;-81
2023/07/13 03:07:03;;;;;;;15.10;5.88;;;;;;;15.40;100.00;92457.78;4827593;29;20106;-81
2023/07/13 03:09:35;;;;;;;12.07;5.30;;;;;;;15.40;100.00;92463.84;4817972;29;20043;-81
2023/07/13 03:12:03;;;;;;;10.73;4.70;;;;;;;15.43;100.00;92462.44;4800422;29;20061;-81
2023/07/13 03:14:31;;;;;;;16.23;5.05;;;;;;;15.44;100.00;92450.03;4813332;29;20049;-80
2023/07/13 03:16:58;;;;;;;12.73;5.18;;;;;;;15.41;100.00;92446.16;4798545;29;20049;-80
2023/07/13 03:19:27;;;;;;;11.57;5.18;;;;;;;15.37;100.00;92447.88;4799209;29;20134;-81
2023/07/13 03:21:53;;;;;;;16.25;5.30;;;;;;;15.32;100.00;92446.19;4826723;29;20047;-81
2023/07/13 03:24:20;;;;;;;15.85;5.20;;;;;;;15.40;100.00;92449.88;4829383;29;20053;-82
2023/07/13 03:26:46;;;;;;;15.55;5.22;;;;;;;15.47;100.00;92458.09;4829754;29;20047;-81
2023/07/13 03:29:12;;;;;;;13.32;4.88;;;;;;;15.49;100.00;92457.75;4807888;29;20035;-82
2023/07/13 03:31:38;;;;;;;17.80;5.10;;;;;;;15.48;100.00;92470.19;4825149;29;20071;-81
2023/07/13 03:34:04;;;;;;;13.73;5.30;;;;;;;15.44;100.00;92474.53;4813293;29;20589;-80
2023/07/13 03:36:32;;;;;;;15.48;5.50;;;;;;;15.41;100.00;92468.03;4810542;29;20039;-80
2023/07/13 03:39:03;;;;;;;15.77;5.13;;;;;;;15.42;100.00;92471.44;4809132;29;20035;-81
2023/07/13 03:41:37;;;;;;;18.55;5.80;;;;;;;15.41;100.00;92472.53;4827828;29;20398;-81
2023/07/13 03:44:03;;;;;;;12.50;5.18;;;;;;;15.40;100.00;92478.88;4796951;29;20066;-81
2023/07/13 03:46:29;;;;;;;13.40;5.20;;;;;;;15.44;100.00;92479.81;4798241;29;20035;-81
2023/07/13 03:48:56;;;;;;;16.52;5.15;;;;;;;15.38;100.00;92481.84;4827745;29;20554;-82
2023/07/13 03:51:22;;;;;;;12.65;5.20;;;;;;;15.40;100.00;92489.44;4811018;29;20046;-81
2023/07/13 03:53:48;;;;;;;12.52;4.53;;;;;;;15.39;100.00;92493.16;4826045;29;20045;-82
2023/07/13 03:56:18;;;;;;;15.23;4.68;;;;;;;15.36;100.00;92493.81;4826917;29;20050;-81
2023/07/13 03:58:46;;;;;;;17.90;4.35;;;;;;;15.35;100.00;92489.59;4813683;29;20126;-81
2023/07/13 04:01:18;;;;;;;12.35;4.93;;;;;;;15.34;100.00;92485.44;4828704;29;20037;-80
2023/07/13 04:03:46;;;;;;;12.13;4.82;;;;;;;15.33;100.00;92487.31;4812272;29;20042;-81
2023/07/13 04:06:20;;;;;;;9.82;4.50;;;;;;;15.29;100.00;92483.75;4815383;29;20446;-81
2023/07/13 04:08:49;;;;;;;11.75;4.75;;;;;;;15.34;100.00;92485.44;4827855;29;20071;-81
2023/07/13 04:11:14;;;;;;;10.35;4.65;;;;;;;15.34;100.00;92483.56;4815267;29;20042;-81
2023/07/13 04:13:40;;;;;;;14.57;4.75;;;;;;;15.33;100.00;92479.41;4822900;29;20051;-82
2023/07/13 04:16:06;;;;;;;14.90;5.47;;;;;;;15.34;100.00;92477.53;4812671;29;20039;-81
2023/07/13 04:18:31;;;;;;;13.77;4.65;;;;;;;15.36;100.00;92478.00;4812287;29;20134;-79
2023/07/13 04:20:57;;;;;;;9.98;4.63;;;;;;;15.38;100.00;92481.84;4808863;29;20049;-79
2023/07/13 04:23:22;;;;;;;13.23;4.80;;;;;;;15.39;100.00;92478.13;4804624;29;20026;-79
2023/07/13 04:25:52;;;;;;;18.27;5.30;;;;;;;15.44;100.00;92481.69;4803355;29;20457;-80
2023/07/13 04:28:19;;;;;;;14.85;5.40;;;;;;;15.46;100.00;92482.91;4806017;29;20409;-81
2023/07/13 04:30:45;;;;;;;10.20;4.47;;;;;;;15.52;100.00;92486.16;4800408;29;20161;-79
2023/07/13 04:36:27;;;;;;;15.10;5.07;;;;;;;15.62;100.00;92488.44;5602852;23;20132;-82
2023/07/13 04:38:53;;;;;;;19.80;5.18;;;;;;;15.61;100.00;92490.31;4843431;29;20034;-82
2023/07/13 04:41:21;;;;;;;15.30;4.45;;;;;;;15.68;100.00;92489.81;4844431;29;20137;-82
2023/07/13 04:43:47;;;;;;;14.93;5.10;;;;;;;15.69;100.00;92487.94;4841243;29;20053;-83
2023/07/13 04:46:15;;;;;;;16.83;5.05;;;;;;;15.71;100.00;92493.69;4848178;29;20182;-80
2023/07/13 04:48:41;;;;;;;15.73;4.32;;;;;;;15.79;100.00;92490.25;4846584;29;20335;-82
2023/07/13 04:51:07;;;;;;;11.40;4.07;;;;;;;15.89;100.00;92489.88;4840983;29;20077;-81
2023/07/13 04:53:34;;;;;;;15.90;4.55;;;;;;;15.96;100.00;92494.66;4841631;29;20382;-82
2023/07/13 04:56:00;;;;;;;13.23;4.63;;;;;;;15.96;100.00;92484.09;4841017;29;20040;-82
2023/07/13 04:58:27;;;;;;;11.10;4.50;;;;;;;16.06;100.00;92496.97;4839195;29;20107;-81
2023/07/13 05:00:53;;;;;;;13.40;4.80;;;;;;;16.11;100.00;92496.00;4843366;29;20115;-82
2023/07/13 05:03:19;;;;;;;15.05;4.47;;;;;;;16.17;100.00;92498.13;4844012;29;20038;-81
2023/07/13 05:05:55;;;;;;;15.27;4.18;;;;;;;16.23;100.00;92501.34;4845932;29;20038;-81
2023/07/13 05:08:21;;;;;;;8.43;4.18;;;;;;;16.29;100.00;92507.22;4841279;29;20034;-82
2023/07/13 05:10:46;;;;;;;12.10;3.80;;;;;;;16.44;100.00;92504.03;4819222;29;20582;-82
2023/07/13 05:13:12;;;;;;;9.38;4.05;;;;;;;16.55;100.00;92509.69;4823369;29;20114;-82
2023/07/13 05:15:37;;;;;;;10.32;4.32;;;;;;;16.55;100.00;92512.31;4846013;29;20038;-82
2023/07/13 05:18:03;;;;;;;16.00;4.50;;;;;;;16.57;100.00;92513.56;4840476;29;20034;-82
2023/07/13 05:20:29;;;;;;;12.75;4.40;;;;;;;16.58;100.00;92509.81;4843716;29;20416;-81
2023/07/13 05:22:55;;;;;;;9.32;4.07;;;;;;;16.64;100.00;92510.41;4851421;29;20037;-81
2023/07/13 05:25:20;;;;;;;15.32;4.18;;;;;;;16.72;100.00;92522.00;4840644;29;20050;-81
2023/07/13 05:27:47;;;;;;;13.50;4.32;;;;;;;16.78;100.00;92518.84;4811963;29;20493;-82
2023/07/13 05:30:13;;;;;;;12.07;4.28;;;;;;;16.89;100.00;92527.19;4822877;29;20041;-82
2023/07/13 05:32:39;;;;;;;11.52;4.45;;;;;;;16.95;100.00;92523.25;4841468;29;20057;-82
2023/07/13 05:35:05;;;;;;;11.82;3.75;;;;;;;17.06;100.00;92520.97;4825965;29;20046;-82
2023/07/13 05:37:30;;;;;;;12.18;3.95;;;;;;;17.20;100.00;92529.41;4840662;29;20109;-81
2023/07/13 05:39:56;;;;;;;11.13;4.18;;;;;;;17.28;100.00;92525.91;4839144;29;20046;-82
2023/07/13 05:42:22;;;;;;;8.57;3.90;;;;;;;17.40;100.00;92516.44;4819709;29;20042;-82
2023/07/13 05:44:47;;;;;;;14.35;4.18;;;;;;;17.51;100.00;92522.09;4836392;29;20069;-82
2023/07/13 05:47:14;;;;;;;10.98;4.70;;;;;;;17.57;100.00;92526.84;4841958;29;20041;-81
2023/07/13 05:49:58;;;;;;;16.02;4.32;;;;;;;17.64;100.00;92518.38;4835749;29;20057;-83
2023/07/13 05:52:48;;;;;;;12.95;4.47;;;;;;;17.85;100.00;92520.97;4835756;29;20400;-78
2023/07/13 05:55:15;;;;;;;13.45;4.95;;;;;;;18.24;100.00;92529.38;4840857;29;20053;-80
2023/07/13 05:57:40;;;;;;;10.43;4.75;;;;;;;18.76;100.00;92522.56;4824655;29;20074;-82
2023/07/13 06:00:07;;;;;;;12.10;4.55;;;;;;;19.63;100.00;92524.50;4826263;29;20041;-82
2023/07/13 06:02:37;;;;;;;15.40;4.80;;;;;;;19.87;100.00;92526.28;4835211;29;20054;-81
2023/07/13 06:05:04;;;;;;;13.65;4.40;;;;;;;19.46;100.00;92532.81;4833222;29;20038;-81
2023/07/13 06:07:30;;;;;;;11.50;4.20;;;;;;;19.65;100.00;92537.47;4844396;29;20038;-84
2023/07/13 06:09:56;;;;;;;8.98;4.05;;;;;;;19.41;100.00;92531.19;4829496;29;20049;-82
2023/07/13 06:12:22;;;;;;;10.55;4.07;;;;;;;19.47;100.00;92527.16;4845853;29;20042;-82
2023/07/13 06:14:47;;;;;;;11.73;4.43;;;;;;;20.04;100.00;92530.50;4848503;29;20091;-82
2023/07/13 06:17:13;;;;;;;9.80;4.57;;;;;;;21.11;100.00;92523.31;4800516;29;20030;-82
2023/07/13 06:19:39;;;;;;;20.70;5.63;;;;;;;21.16;100.00;92528.34;4831990;29;20042;-83
2023/07/13 06:22:05;;;;;;;11.15;4.50;;;;;;;21.44;100.00;92530.81;4846920;29;20049;-83
2023/07/13 06:24:30;;;;;;;11.57;4.80;;;;;;;21.80;100.00;92537.53;4815011;29;20124;-83
2023/07/13 06:26:56;;;;;;;11.82;4.70;;;;;;;22.00;100.00;92534.84;4839526;29;20046;-84
2023/07/13 06:29:22;;;;;;;18.23;5.32;;;;;;;22.15;100.00;92528.59;4841323;29;20034;-83
2023/07/13 06:31:47;;;;;;;13.60;4.40;;;;;;;22.97;100.00;92541.59;4828896;29;20073;-82
2023/07/13 06:34:13;;;;;;;21.48;6.22;;;;;;;23.15;100.00;92552.53;4843971;29;20034;-83
2023/07/13 06:36:38;;;;;;;19.27;4.75;;;;;;;22.74;100.00;92555.78;4829130;29;20066;-83
2023/07/13 06:39:06;;;;;;;18.67;5.25;;;;;;;22.13;100.00;92554.06;4852723;29;20045;-82
2023/07/13 06:41:32;;;;;;;13.75;5.32;;;;;;;21.65;100.00;92557.06;4845451;29;20042;-83
2023/07/13 06:44:14;;;;;;;19.98;5.45;;;;;;;21.59;100.00;92556.59;4838977;29;20042;-83
2023/07/13 06:46:41;;;;;;;18.00;5.60;;;;;;;21.58;100.00;92562.25;4819482;29;20427;-83
2023/07/13 06:49:08;;;;;;;20.10;5.75;;;;;;;21.41;100.00;92558.13;4836957;29;20045;-82
2023/07/13 06:51:34;;;;;;;15.73;4.95;;;;;;;20.87;100.00;92561.59;4842421;29;20121;-81
2023/07/13 06:53:59;;;;;;;21.92;5.70;;;;;;;20.70;100.00;92560.09;4842626;29;20078;-83
2023/07/13 06:56:25;;;;;;;14.90;4.90;;;;;;;20.55;100.00;92567.72;4843932;29;20045;-84
2023/07/13 06:58:51;;;;;;;11.43;4.65;;;;;;;20.61;100.00;92567.50;4844393;29;20365;-83
2023/07/13 07:01:16;;;;;;;17.67;5.03;;;;;;;20.64;100.00;92564.91;4829383;29;20071;-81
2023/07/13 07:03:42;;;;;;;17.23;5.07;;;;;;;20.66;100.00;92567.22;4828943;29;20485;-82
2023/07/13 07:06:20;;;;;;;12.43;4.80;;;;;;;20.70;100.00;92568.09;4846794;29;20086;-81
2023/07/13 07:08:46;;;;;;;11.35;5.05;;;;;;;20.61;100.00;92559.53;4844463;29;20033;-80
2023/07/13 07:11:14;;;;;;;18.48;5.15;;;;;;;20.69;100.00;92556.69;4842175;29;20089;-81
2023/07/13 07:13:40;;;;;;;17.08;4.75;;;;;;;20.52;100.00;92557.03;4851680;29;20063;-81
2023/07/13 07:16:06;;;;;;;11.43;3.97;;;;;;;20.55;100.00;92565.06;4849265;29;20038;-81
2023/07/13 07:18:32;;;;;;;10.10;4.10;;;;;;;20.43;100.00;92565.19;4850683;29;20120;-81
2023/07/13 07:20:58;;;;;;;11.10;4.05;;;;;;;20.52;100.00;92557.03;4848393;29;20065;-81
2023/07/13 07:23:23;;;;;;;13.70;4.50;;;;;;;20.76;100.00;92556.81;4847437;29;20034;-82
2023/07/13 07:25:49;;;;;;;15.60;4.50;;;;;;;20.79;100.00;92563.34;4850812;29;20048;-80
2023/07/13 07:28:19;;;;;;;11.55;4.40;;;;;;;20.96;100.00;92560.28;4852499;29;20082;-81
2023/07/13 07:30:45;;;;;;;12.80;4.07;;;;;;;20.98;100.00;92563.38;4851698;29;20049;-80
2023/07/13 07:33:11;;;;;;;18.83;4.30;;;;;;;21.17;100.00;92559.19;4850105;29;20042;-81
2023/07/13 07:35:37;;;;;;;9.95;4.60;;;;;;;21.15;100.00;92556.09;4851828;29;20052;-81
2023/07/13 07:38:03;;;;;;;12.57;4.68;;;;;;;21.53;100.00;92554.56;4842977;29;20084;-81
2023/07/13 07:40:29;;;;;;;12.95;4.80;;;;;;;21.61;100.00;92556.97;4842808;29;20045;-80
2023/07/13 07:42:54;;;;;;;9.35;4.13;;;;;;;21.94;100.00;92562.91;4845372;29;20034;-80
2023/07/13 07:45:21;;;;;;;16.42;4.88;;;;;;;21.96;100.00;92556.09;4844187;29;20068;-81
2023/07/13 07:47:47;;;;;;;13.60;4.10;;;;;;;22.02;100.00;92556.53;4838381;29;20034;-80
2023/07/13 07:50:13;;;;;;;18.17;5.50;;;;;;;21.94;100.00;92558.34;4845323;29;20049;-81
2023/07/13 07:52:38;;;;;;;17.08;5.80;;;;;;;21.76;100.00;92566.00;4836885;29;20045;-80
2023/07/13 07:55:06;;;;;;;16.05;5.22;;;;;;;21.81;100.00;92555.06;4836492;29;20393;-80
2023/07/13 07:57:32;;;;;;;20.77;5.95;;;;;;;21.95;100.00;92559.09;4840682;29;20055;-79
2023/07/13 07:59:58;;;;;;;14.27;5.03;;;;;;;22.14;100.00;92548.38;4837203;29;20137;-81
2023/07/13 08:02:25;;;;;;;17.75;5.53;;;;;;;22.14;100.00;92550.28;4839090;29;20041;-80
2023/07/13 08:04:51;;;;;;;17.10;5.38;;;;;;;22.18;100.00;92551.13;4844128;29;20045;-81
2023/07/13 08:07:17;;;;;;;12.15;4.97;;;;;;;22.36;100.00;92546.84;4839993;29;20026;-79
2023/07/13 08:09:44;;;;;;;20.25;5.20;;;;;;;22.32;100.00;92551.34;4812460;29;20067;-81
2023/07/13 08:12:10;;;;;;;12.70;5.20;;;;;;;22.26;100.00;92552.03;4821497;29;20127;-79
2023/07/13 08:14:35;;;;;;;29.77;6.00;;;;;;;22.13;100.00;92559.41;4819607;29;20046;-79
2023/07/13 08:17:01;;;;;;;13.55;5.22;;;;;;;22.17;100.00;92561.00;4831063;29;20037;-81
2023/07/13 08:19:27;;;;;;;13.23;5.20;;;;;;;22.29;100.00;92557.41;4829591;29;20655;-76
2023/07/13 08:21:53;;;;;;;12.90;5.55;;;;;;;22.28;100.00;92557.75;4830010;29;20034;-76
2023/07/13 08:24:21;;;;;;;18.52;5.80;;;;;;;22.41;100.00;92556.44;4836716;29;20088;-78
2023/07/13 08:26:47;;;;;;;14.18;5.25;;;;;;;22.43;100.00;92556.88;4833468;29;20049;-77
2023/07/13 08:29:13;;;;;;;11.27;4.97;;;;;;;22.43;100.00;92562.97;4832866;29;20432;-79
2023/07/13 08:31:38;;;;;;;12.82;5.38;;;;;;;22.23;100.00;92559.59;4836412;29;20076;-80
2023/07/13 08:34:04;;;;;;;14.55;5.07;;;;;;;22.43;100.00;92557.63;4811525;29;20914;-79
2023/07/13 08:36:30;;;;;;;11.90;5.28;;;;;;;22.61;100.00;92563.22;4821358;29;21268;-78
2023/07/13 08:38:55;;;;;;;13.52;5.50;;;;;;;22.50;100.00;92561.53;4835781;29;20456;-79
2023/07/13 08:41:21;;;;;;;13.38;5.20;;;;;;;22.17;100.00;92561.00;4847573;29;20108;-80
2023/07/13 08:43:58;;;;;;;10.88;5.13;;;;;;;22.29;100.00;92564.63;4844479;29;20056;-80
2023/07/13 08:46:27;;;;;;;17.27;5.78;;;;;;;22.31;100.00;92565.03;4844453;29;20034;-79
2023/07/13 08:48:59;;;;;;;15.27;5.63;;;;;;;22.34;100.00;92569.69;4836008;29;20147;-79
2023/07/13 08:51:47;;;;;;;23.00;5.03;;;;;;;22.26;100.00;92562.69;4831777;29;20038;-78
2023/07/13 08:54:15;;;;;;;23.30;5.93;;;;;;;22.33;100.00;92568.13;4838559;29;20518;-79
2023/07/13 08:56:45;;;;;;;16.85;5.28;;;;;;;22.23;100.00;92566.84;4841763;29;20702;-80
2023/07/13 08:59:18;;;;;;;16.63;5.70;;;;;;;22.28;100.00;92571.09;4837157;29;20065;-80
2023/07/13 09:01:59;;;;;;;16.58;4.93;;;;;;;22.40;100.00;92562.91;4843009;29;20072;-78
2023/07/13 09:04:34;;;;;;;12.43;4.63;;;;;;;22.39;100.00;92567.47;4839126;29;20137;-79
2023/07/13 09:07:32;;;;;;;16.95;5.90;;;;;;;22.49;100.00;92568.75;4839862;29;20045;-79
2023/07/13 09:10:24;;;;;;;19.75;5.60;;;;;;;22.57;100.00;92581.06;4818279;29;20117;-79
2023/07/13 09:13:17;;;;;;;14.98;5.30;;;;;;;22.44;100.00;92574.41;4836201;29;20041;-80
2023/07/13 09:15:46;;;;;;;21.55;5.57;;;;;;;22.48;100.00;92575.22;4836158;29;20044;-78
2023/07/13 09:18:35;;;;;;;17.58;3.92;;;;;;;22.53;100.00;92576.81;4841630;29;20046;-79
2023/07/13 09:21:15;;;;;;;17.05;5.30;;;;;;;22.71;100.00;92583.19;4839529;29;20492;-80
2023/07/13 09:23:41;;;;;;;12.35;5.40;;;;;;;22.69;100.00;92579.34;4825114;29;20042;-78
2023/07/13 09:26:13;;;;;;;16.10;5.00;;;;;;;22.73;100.00;92593.50;4835732;29;20124;-80
2023/07/13 09:28:45;;;;;;;19.83;5.10;;;;;;;22.82;100.00;92589.44;4836962;29;20478;-79
2023/07/13 09:31:17;;;;;;;9.77;4.70;;;;;;;23.03;100.00;92591.69;4841042;29;20030;-78
2023/07/13 09:33:45;;;;;;;9.75;4.90;;;;;;;23.11;100.00;92589.09;4845362;29;20045;-79
2023/07/13 09:36:29;;;;;;;20.02;4.57;;;;;;;23.31;100.00;92598.50;4854523;29;20073;-79
2023/07/13 09:39:14;;;;;;;8.55;4.28;;;;;;;23.30;100.00;92604.97;4843953;29;20049;-79
2023/07/13 09:41:46;;;;;;;18.67;4.93;;;;;;;23.40;100.00;92615.03;4843382;29;20034;-79
2023/07/13 09:44:13;;;;;;;;;;;;;;;23.22;100.00;92606.78;4848469;29;20569;-80
2023/07/13 09:46:43;;;;;;;21.65;4.97;;;;;;;23.23;100.00;92602.97;4844184;29;19917;-77
2023/07/13 09:49:10;;;;;;;16.30;4.20;;;;;;;23.17;100.00;92619.66;4844205;29;20060;-81
2023/07/13 09:51:38;;;;;;;16.20;4.43;;;;;;;23.12;100.00;92617.31;4846544;29;20030;-80
2023/07/13 09:54:03;;;;;;;6.93;3.70;;;;;;;23.15;100.00;92617.38;4829090;29;20042;-80
2023/07/13 09:56:30;;;;;;;13.15;4.40;;;;;;;23.32;100.00;92621.41;4846267;29;20052;-80
2023/07/13 09:58:57;;;;;;;19.55;5.05;;;;;;;23.32;100.00;92613.38;4828096;29;20049;-79
2023/07/13 10:01:38;;;;;;;13.48;5.15;;;;;;;23.38;100.00;92616.53;4840264;29;20042;-78
2023/07/13 10:04:16;;;;;;;11.68;4.50;;;;;;;23.48;100.00;92619.34;4848981;29;20058;-79
2023/07/13 10:06:42;;;;;;;11.20;4.30;;;;;;;23.40;100.00;92622.28;4844284;29;20044;-80
2023/07/13 10:09:10;;;;;;;19.92;5.38;;;;;;;23.60;100.00;92625.56;4846819;29;20117;-80
2023/07/13 10:11:37;;;;;;;15.63;4.97;;;;;;;23.58;100.00;92627.84;4844530;29;20040;-80
2023/07/13 10:14:12;;;;;;;11.10;4.60;;;;;;;23.51;100.00;92627.72;4845347;29;20392;-78
2023/07/13 10:16:42;;;;;;;12.40;5.47;;;;;;;23.56;100.00;92616.75;4842589;29;20038;-78
2023/07/13 10:19:22;;;;;;;16.10;5.10;;;;;;;23.68;100.00;92608.47;4829212;29;20110;-79
2023/07/13 10:22:07;;;;;;;13.00;5.03;;;;;;;23.58;100.00;92617.16;4839579;29;20711;-81
2023/07/13 10:24:38;;;;;;;19.85;5.25;;;;;;;23.53;100.00;92612.09;4839262;29;20049;-80
2023/07/13 10:27:04;;;;;;;11.18;4.90;;;;;;;23.68;100.00;92611.13;4843716;29;20647;-82
2023/07/13 10:29:35;;;;;;;16.95;5.57;;;;;;;23.66;100.00;92622.22;4839985;29;20042;-81
2023/07/13 10:32:01;;;;;;;10.93;5.18;;;;;;;23.61;100.00;92613.75;4845453;29;20045;-80
2023/07/13 10:34:28;;;;;;;16.20;5.50;;;;;;;23.92;100.00;92619.84;4846087;29;20042;-81
2023/07/13 10:36:53;;;;;;;11.38;5.43;;;;;;;23.88;100.00;92619.78;4838594;29;20054;-82
2023/07/13 10:39:23;;;;;;;16.33;5.45;;;;;;;23.86;100.00;92612.13;4828965;29;20571;-80
2023/07/13 10:41:53;;;;;;;15.68;5.82;;;;;;;23.92;100.00;92617.16;4830104;29;20344;-81
2023/07/13 10:44:26;;;;;;;14.13;5.72;;;;;;;23.64;100.00;92604.97;4835259;29;20128;-81
2023/07/13 10:47:14;;;;;;;13.95;5.82;;;;;;;23.67;100.00;92599.69;4842914;29;20597;-80
2023/07/13 10:49:41;;;;;;;16.65;6.85;;;;;;;23.62;100.00;92615.25;4833767;29;20036;-81
2023/07/13 10:52:40;;;;;;;15.68;5.95;;;;;;;23.53;100.00;92620.91;4835645;29;20034;-80
2023/07/13 10:55:33;;;;;;;17.98;6.43;;;;;;;23.30;100.00;92621.00;4832981;29;20117;-82
2023/07/13 10:58:28;;;;;;;15.93;6.72;;;;;;;23.14;100.00;92615.06;4824980;29;20072;-81
2023/07/13 11:01:00;;;;;;;14.32;6.85;;;;;;;22.85;100.00;92606.63;4824028;29;20049;-80
2023/07/13 11:03:29;;;;;;;16.65;6.40;;;;;;;22.90;100.00;92614.34;4823400;29;20038;-77
2023/07/13 11:06:09;;;;;;;17.10;6.38;;;;;;;22.83;100.00;92622.22;4843885;29;20040;-80
2023/07/13 11:08:38;;;;;;;19.55;6.90;;;;;;;22.86;100.00;92627.63;4834198;29;20481;-79
2023/07/13 11:11:24;;;;;;;19.85;7.80;;;;;;;22.86;100.00;92622.28;4824102;29;21330;-78
2023/07/13 11:13:49;;;;;;;18.10;6.47;;;;;;;22.81;100.00;92622.59;4832073;29;20156;-80
2023/07/13 11:16:18;;;;;;;18.67;7.03;;;;;;;22.39;100.00;92620.81;4826502;29;20093;-77
2023/07/13 11:18:52;;;;;;;22.35;7.13;;;;;;;22.40;100.00;92626.91;4832628;29;20049;-79
2023/07/13 11:21:26;;;;;;;14.80;7.78;;;;;;;22.21;100.00;92627.72;4838261;29;20120;-81
2023/07/13 11:24:03;;;;;;;22.15;7.50;;;;;;;22.21;100.00;92623.16;4845079;29;20063;-80
2023/07/13 11:26:39;;;;;;;15.68;6.95;;;;;;;22.15;100.00;92623.78;4849741;29;20041;-80